sensor_id;sensor_type;location;lat;lon;timestamp;P1;durP1;ratioP1;P2;durP2;ratioP2
66270;SDS011;53063;39.614;8.814;2023-11-19T00:00:53;8.38;;;2.00;;
66270;SDS011;53063;39.614;8.814;2023-11-19T00:03:18;9.07;;;2.38;;
66270;SDS011;53063;39.614;8.814;2023-11-19T00:05:45;6.57;;;1.92;;
66270;SDS011;53063;39.614;8.814;2023-11-19T00:08:11;6.90;;;1.75;;
66270;SDS011;53063;39.614;8.814;2023-11-19T00:10:37;5.55;;;1.52;;
66270;SDS011;53063;39.614;8.814;2023-11-19T00:13:02;4.85;;;1.90;;
66270;SDS011;53063;39.614;8.814;2023-11-19T00:15:29;5.28;;;1.92;;
66270;SDS011;53063;39.614;8.814;2023-11-19T00:17:55;6.70;;;2.00;;
66270;SDS011;53063;39.614;8.814;2023-11-19T00:20:21;4.43;;;1.10;;
66270;SDS011;53063;39.614;8.814;2023-11-19T00:22:47;5.03;;;1.30;;
66270;SDS011;53063;39.614;8.814;2023-11-19T00:25:16;4.45;;;1.40;;
66270;SDS011;53063;39.614;8.814;2023-11-19T00:27:43;3.67;;;1.30;;
66270;SDS011;53063;39.614;8.814;2023-11-19T00:30:12;3.53;;;1.08;;
66270;SDS011;53063;39.614;8.814;2023-11-19T00:32:39;3.65;;;1.30;;
66270;SDS011;53063;39.614;8.814;2023-11-19T00:35:06;4.07;;;1.80;;
66270;SDS011;53063;39.614;8.814;2023-11-19T00:37:35;3.55;;;1.70;;
66270;SDS011;53063;39.614;8.814;2023-11-19T00:40:01;10.23;;;2.45;;
66270;SDS011;53063;39.614;8.814;2023-11-19T00:42:30;2.47;;;0.95;;
66270;SDS011;53063;39.614;8.814;2023-11-19T00:44:56;8.05;;;1.40;;
66270;SDS011;53063;39.614;8.814;2023-11-19T00:47:23;3.28;;;0.85;;
66270;SDS011;53063;39.614;8.814;2023-11-19T00:49:48;2.22;;;1.10;;
66270;SDS011;53063;39.614;8.814;2023-11-19T00:52:15;6.20;;;1.00;;
66270;SDS011;53063;39.614;8.814;2023-11-19T00:54:42;5.65;;;0.85;;
66270;SDS011;53063;39.614;8.814;2023-11-19T00:57:08;2.63;;;1.02;;
66270;SDS011;53063;39.614;8.814;2023-11-19T00:59:34;4.78;;;1.30;;
66270;SDS011;53063;39.614;8.814;2023-11-19T01:02:00;3.67;;;1.00;;
66270;SDS011;53063;39.614;8.814;2023-11-19T01:04:33;5.97;;;0.90;;
66270;SDS011;53063;39.614;8.814;2023-11-19T01:07:03;5.40;;;2.20;;
66270;SDS011;53063;39.614;8.814;2023-11-19T01:09:32;4.93;;;1.45;;
66270;SDS011;53063;39.614;8.814;2023-11-19T01:12:00;4.28;;;1.70;;
66270;SDS011;53063;39.614;8.814;2023-11-19T01:14:26;4.32;;;1.33;;
66270;SDS011;53063;39.614;8.814;2023-11-19T01:16:52;5.50;;;1.85;;
66270;SDS011;53063;39.614;8.814;2023-11-19T01:19:21;5.50;;;1.55;;
66270;SDS011;53063;39.614;8.814;2023-11-19T01:21:50;2.30;;;1.33;;
66270;SDS011;53063;39.614;8.814;2023-11-19T01:24:17;1.45;;;1.05;;
66270;SDS011;53063;39.614;8.814;2023-11-19T01:26:43;6.30;;;1.10;;
66270;SDS011;53063;39.614;8.814;2023-11-19T01:29:12;4.90;;;1.30;;
66270;SDS011;53063;39.614;8.814;2023-11-19T01:31:43;6.20;;;1.50;;
66270;SDS011;53063;39.614;8.814;2023-11-19T01:34:12;3.97;;;0.90;;
66270;SDS011;53063;39.614;8.814;2023-11-19T01:36:37;5.25;;;1.40;;
66270;SDS011;53063;39.614;8.814;2023-11-19T01:39:04;5.10;;;1.42;;
66270;SDS011;53063;39.614;8.814;2023-11-19T01:41:36;3.28;;;1.20;;
66270;SDS011;53063;39.614;8.814;2023-11-19T01:44:05;3.40;;;1.38;;
66270;SDS011;53063;39.614;8.814;2023-11-19T01:46:31;3.13;;;1.10;;
66270;SDS011;53063;39.614;8.814;2023-11-19T01:48:58;5.38;;;1.30;;
66270;SDS011;53063;39.614;8.814;2023-11-19T01:51:25;3.92;;;1.15;;
66270;SDS011;53063;39.614;8.814;2023-11-19T01:53:52;6.85;;;1.23;;
66270;SDS011;53063;39.614;8.814;2023-11-19T01:56:18;2.95;;;1.50;;
66270;SDS011;53063;39.614;8.814;2023-11-19T01:58:46;2.28;;;1.10;;
66270;SDS011;53063;39.614;8.814;2023-11-19T02:01:13;4.88;;;1.52;;
66270;SDS011;53063;39.614;8.814;2023-11-19T02:03:40;4.05;;;1.23;;
66270;SDS011;53063;39.614;8.814;2023-11-19T02:06:06;9.15;;;1.70;;
66270;SDS011;53063;39.614;8.814;2023-11-19T02:08:32;8.38;;;1.30;;
66270;SDS011;53063;39.614;8.814;2023-11-19T02:10:59;6.03;;;1.67;;
66270;SDS011;53063;39.614;8.814;2023-11-19T02:13:25;6.65;;;1.85;;
66270;SDS011;53063;39.614;8.814;2023-11-19T02:15:54;7.70;;;1.20;;
66270;SDS011;53063;39.614;8.814;2023-11-19T02:18:24;9.30;;;1.60;;
66270;SDS011;53063;39.614;8.814;2023-11-19T02:20:53;3.25;;;1.15;;
66270;SDS011;53063;39.614;8.814;2023-11-19T02:23:20;5.65;;;1.25;;
66270;SDS011;53063;39.614;8.814;2023-11-19T02:28:27;5.07;;;1.35;;
66270;SDS011;53063;39.614;8.814;2023-11-19T02:30:53;5.35;;;1.30;;
66270;SDS011;53063;39.614;8.814;2023-11-19T02:33:19;5.25;;;1.20;;
66270;SDS011;53063;39.614;8.814;2023-11-19T02:35:45;7.40;;;1.35;;
66270;SDS011;53063;39.614;8.814;2023-11-19T02:38:11;10.35;;;1.17;;
66270;SDS011;53063;39.614;8.814;2023-11-19T02:40:39;3.60;;;0.90;;
66270;SDS011;53063;39.614;8.814;2023-11-19T02:43:05;2.63;;;0.90;;
66270;SDS011;53063;39.614;8.814;2023-11-19T02:45:31;7.78;;;1.40;;
66270;SDS011;53063;39.614;8.814;2023-11-19T02:47:57;3.38;;;0.93;;
66270;SDS011;53063;39.614;8.814;2023-11-19T02:50:23;3.28;;;0.90;;
66270;SDS011;53063;39.614;8.814;2023-11-19T02:52:52;3.33;;;0.80;;
66270;SDS011;53063;39.614;8.814;2023-11-19T02:55:19;4.03;;;0.75;;
66270;SDS011;53063;39.614;8.814;2023-11-19T02:57:45;3.85;;;0.57;;
66270;SDS011;53063;39.614;8.814;2023-11-19T03:00:16;4.47;;;0.95;;
66270;SDS011;53063;39.614;8.814;2023-11-19T03:02:46;6.30;;;1.00;;
66270;SDS011;53063;39.614;8.814;2023-11-19T03:05:13;3.58;;;0.77;;
66270;SDS011;53063;39.614;8.814;2023-11-19T03:07:42;6.45;;;1.00;;
66270;SDS011;53063;39.614;8.814;2023-11-19T03:10:09;8.38;;;1.00;;
66270;SDS011;53063;39.614;8.814;2023-11-19T03:12:43;9.10;;;1.20;;
66270;SDS011;53063;39.614;8.814;2023-11-19T03:15:10;1.77;;;0.63;;
66270;SDS011;53063;39.614;8.814;2023-11-19T03:17:40;2.33;;;0.60;;
66270;SDS011;53063;39.614;8.814;2023-11-19T03:20:07;4.10;;;0.90;;
66270;SDS011;53063;39.614;8.814;2023-11-19T03:22:43;4.57;;;0.90;;
66270;SDS011;53063;39.614;8.814;2023-11-19T03:25:09;2.55;;;0.70;;
66270;SDS011;53063;39.614;8.814;2023-11-19T03:27:36;3.25;;;0.73;;
66270;SDS011;53063;39.614;8.814;2023-11-19T03:30:04;2.58;;;0.63;;
66270;SDS011;53063;39.614;8.814;2023-11-19T03:32:31;3.13;;;0.88;;
66270;SDS011;53063;39.614;8.814;2023-11-19T03:34:57;7.20;;;1.45;;
66270;SDS011;53063;39.614;8.814;2023-11-19T03:37:25;3.42;;;0.82;;
66270;SDS011;53063;39.614;8.814;2023-11-19T03:39:51;3.33;;;0.90;;
66270;SDS011;53063;39.614;8.814;2023-11-19T03:42:20;4.28;;;0.88;;
66270;SDS011;53063;39.614;8.814;2023-11-19T03:44:46;2.13;;;0.70;;
66270;SDS011;53063;39.614;8.814;2023-11-19T03:47:12;5.80;;;0.90;;
66270;SDS011;53063;39.614;8.814;2023-11-19T03:49:38;3.67;;;0.80;;
66270;SDS011;53063;39.614;8.814;2023-11-19T03:52:04;5.85;;;0.95;;
66270;SDS011;53063;39.614;8.814;2023-11-19T03:54:30;2.38;;;0.88;;
66270;SDS011;53063;39.614;8.814;2023-11-19T03:56:58;7.10;;;1.25;;
66270;SDS011;53063;39.614;8.814;2023-11-19T03:59:25;2.55;;;0.70;;
66270;SDS011;53063;39.614;8.814;2023-11-19T04:01:51;8.32;;;1.20;;
66270;SDS011;53063;39.614;8.814;2023-11-19T04:04:19;4.13;;;0.77;;
66270;SDS011;53063;39.614;8.814;2023-11-19T04:06:45;4.35;;;1.20;;
66270;SDS011;53063;39.614;8.814;2023-11-19T04:09:11;2.53;;;0.80;;
66270;SDS011;53063;39.614;8.814;2023-11-19T04:11:37;3.40;;;1.02;;
66270;SDS011;53063;39.614;8.814;2023-11-19T04:14:05;1.02;;;0.60;;
66270;SDS011;53063;39.614;8.814;2023-11-19T04:16:31;3.83;;;0.85;;
66270;SDS011;53063;39.614;8.814;2023-11-19T04:18:57;7.28;;;1.08;;
66270;SDS011;53063;39.614;8.814;2023-11-19T04:21:24;4.32;;;1.30;;
66270;SDS011;53063;39.614;8.814;2023-11-19T04:23:51;6.97;;;0.90;;
66270;SDS011;53063;39.614;8.814;2023-11-19T04:26:16;6.63;;;0.88;;
66270;SDS011;53063;39.614;8.814;2023-11-19T04:28:42;2.40;;;1.20;;
66270;SDS011;53063;39.614;8.814;2023-11-19T04:31:08;6.07;;;0.90;;
66270;SDS011;53063;39.614;8.814;2023-11-19T04:33:34;2.55;;;0.73;;
66270;SDS011;53063;39.614;8.814;2023-11-19T04:36:00;2.92;;;0.90;;
66270;SDS011;53063;39.614;8.814;2023-11-19T04:38:27;4.22;;;0.77;;
66270;SDS011;53063;39.614;8.814;2023-11-19T04:40:53;1.75;;;0.70;;
66270;SDS011;53063;39.614;8.814;2023-11-19T04:43:19;2.70;;;0.90;;
66270;SDS011;53063;39.614;8.814;2023-11-19T04:45:45;2.33;;;0.93;;
66270;SDS011;53063;39.614;8.814;2023-11-19T04:48:11;3.47;;;0.82;;
66270;SDS011;53063;39.614;8.814;2023-11-19T04:50:37;4.00;;;1.05;;
66270;SDS011;53063;39.614;8.814;2023-11-19T04:53:03;5.22;;;1.00;;
66270;SDS011;53063;39.614;8.814;2023-11-19T04:55:29;2.70;;;0.82;;
66270;SDS011;53063;39.614;8.814;2023-11-19T04:57:55;5.10;;;0.85;;
66270;SDS011;53063;39.614;8.814;2023-11-19T05:00:21;3.95;;;0.65;;
66270;SDS011;53063;39.614;8.814;2023-11-19T05:02:47;2.05;;;0.65;;
66270;SDS011;53063;39.614;8.814;2023-11-19T05:05:15;3.47;;;1.05;;
66270;SDS011;53063;39.614;8.814;2023-11-19T05:07:41;2.08;;;0.75;;
66270;SDS011;53063;39.614;8.814;2023-11-19T05:10:07;3.95;;;1.08;;
66270;SDS011;53063;39.614;8.814;2023-11-19T05:12:33;5.45;;;1.00;;
66270;SDS011;53063;39.614;8.814;2023-11-19T05:14:59;4.32;;;0.88;;
66270;SDS011;53063;39.614;8.814;2023-11-19T05:17:25;1.67;;;0.65;;
66270;SDS011;53063;39.614;8.814;2023-11-19T05:19:51;3.55;;;0.65;;
66270;SDS011;53063;39.614;8.814;2023-11-19T05:22:17;5.22;;;0.90;;
66270;SDS011;53063;39.614;8.814;2023-11-19T05:24:43;3.28;;;0.98;;
66270;SDS011;53063;39.614;8.814;2023-11-19T05:27:09;4.63;;;0.85;;
66270;SDS011;53063;39.614;8.814;2023-11-19T05:29:36;2.95;;;0.60;;
66270;SDS011;53063;39.614;8.814;2023-11-19T05:32:04;4.45;;;0.95;;
66270;SDS011;53063;39.614;8.814;2023-11-19T05:34:30;4.75;;;0.60;;
66270;SDS011;53063;39.614;8.814;2023-11-19T05:36:56;5.20;;;1.05;;
66270;SDS011;53063;39.614;8.814;2023-11-19T05:39:23;4.20;;;0.88;;
66270;SDS011;53063;39.614;8.814;2023-11-19T05:41:49;2.65;;;0.70;;
66270;SDS011;53063;39.614;8.814;2023-11-19T05:44:15;3.63;;;0.82;;
66270;SDS011;53063;39.614;8.814;2023-11-19T05:46:42;4.28;;;1.05;;
66270;SDS011;53063;39.614;8.814;2023-11-19T05:49:09;5.18;;;0.75;;
66270;SDS011;53063;39.614;8.814;2023-11-19T05:51:36;3.72;;;1.10;;
66270;SDS011;53063;39.614;8.814;2023-11-19T05:54:09;9.77;;;1.50;;
66270;SDS011;53063;39.614;8.814;2023-11-19T05:56:35;4.20;;;1.10;;
66270;SDS011;53063;39.614;8.814;2023-11-19T05:59:02;6.53;;;1.10;;
66270;SDS011;53063;39.614;8.814;2023-11-19T06:01:39;4.75;;;0.93;;
66270;SDS011;53063;39.614;8.814;2023-11-19T06:04:06;5.78;;;1.02;;
66270;SDS011;53063;39.614;8.814;2023-11-19T06:06:33;3.10;;;0.70;;
66270;SDS011;53063;39.614;8.814;2023-11-19T06:08:59;2.58;;;1.30;;
66270;SDS011;53063;39.614;8.814;2023-11-19T06:11:25;6.43;;;1.00;;
66270;SDS011;53063;39.614;8.814;2023-11-19T06:13:52;5.10;;;1.02;;
66270;SDS011;53063;39.614;8.814;2023-11-19T06:16:18;8.80;;;1.25;;
66270;SDS011;53063;39.614;8.814;2023-11-19T06:18:44;7.10;;;1.02;;
66270;SDS011;53063;39.614;8.814;2023-11-19T06:21:10;3.75;;;1.08;;
66270;SDS011;53063;39.614;8.814;2023-11-19T06:23:37;2.38;;;0.73;;
66270;SDS011;53063;39.614;8.814;2023-11-19T06:26:03;3.03;;;0.80;;
66270;SDS011;53063;39.614;8.814;2023-11-19T06:28:30;3.17;;;1.20;;
66270;SDS011;53063;39.614;8.814;2023-11-19T06:30:57;5.55;;;0.80;;
66270;SDS011;53063;39.614;8.814;2023-11-19T06:33:23;3.20;;;0.55;;
66270;SDS011;53063;39.614;8.814;2023-11-19T06:35:50;4.03;;;0.90;;
66270;SDS011;53063;39.614;8.814;2023-11-19T06:38:15;2.83;;;1.05;;
66270;SDS011;53063;39.614;8.814;2023-11-19T06:40:41;7.70;;;1.58;;
66270;SDS011;53063;39.614;8.814;2023-11-19T06:43:07;9.20;;;1.65;;
66270;SDS011;53063;39.614;8.814;2023-11-19T06:45:36;6.10;;;1.85;;
66270;SDS011;53063;39.614;8.814;2023-11-19T06:48:02;6.05;;;1.65;;
66270;SDS011;53063;39.614;8.814;2023-11-19T06:50:30;6.63;;;1.67;;
66270;SDS011;53063;39.614;8.814;2023-11-19T06:52:59;3.70;;;1.90;;
66270;SDS011;53063;39.614;8.814;2023-11-19T06:55:25;6.40;;;1.90;;
66270;SDS011;53063;39.614;8.814;2023-11-19T06:57:51;8.20;;;2.15;;
66270;SDS011;53063;39.614;8.814;2023-11-19T07:00:17;6.55;;;1.80;;
66270;SDS011;53063;39.614;8.814;2023-11-19T07:02:44;5.72;;;1.50;;
66270;SDS011;53063;39.614;8.814;2023-11-19T07:05:10;5.82;;;1.52;;
66270;SDS011;53063;39.614;8.814;2023-11-19T07:07:38;8.35;;;1.50;;
66270;SDS011;53063;39.614;8.814;2023-11-19T07:10:05;5.00;;;1.35;;
66270;SDS011;53063;39.614;8.814;2023-11-19T07:12:34;5.85;;;1.60;;
66270;SDS011;53063;39.614;8.814;2023-11-19T07:15:01;3.92;;;1.45;;
66270;SDS011;53063;39.614;8.814;2023-11-19T07:17:29;7.07;;;1.80;;
66270;SDS011;53063;39.614;8.814;2023-11-19T07:19:55;5.20;;;1.38;;
66270;SDS011;53063;39.614;8.814;2023-11-19T07:22:24;5.30;;;1.50;;
66270;SDS011;53063;39.614;8.814;2023-11-19T07:24:50;7.45;;;1.35;;
66270;SDS011;53063;39.614;8.814;2023-11-19T07:27:18;7.20;;;1.70;;
66270;SDS011;53063;39.614;8.814;2023-11-19T07:29:44;6.55;;;2.45;;
66270;SDS011;53063;39.614;8.814;2023-11-19T07:32:10;5.32;;;1.83;;
66270;SDS011;53063;39.614;8.814;2023-11-19T07:34:38;6.55;;;1.85;;
66270;SDS011;53063;39.614;8.814;2023-11-19T07:37:05;5.88;;;2.30;;
66270;SDS011;53063;39.614;8.814;2023-11-19T07:39:30;5.15;;;1.70;;
66270;SDS011;53063;39.614;8.814;2023-11-19T07:41:57;6.47;;;1.80;;
66270;SDS011;53063;39.614;8.814;2023-11-19T07:44:23;3.75;;;1.60;;
66270;SDS011;53063;39.614;8.814;2023-11-19T07:46:49;6.18;;;2.35;;
66270;SDS011;53063;39.614;8.814;2023-11-19T07:49:15;6.40;;;2.63;;
66270;SDS011;53063;39.614;8.814;2023-11-19T07:51:41;4.43;;;1.92;;
66270;SDS011;53063;39.614;8.814;2023-11-19T07:54:07;4.05;;;1.90;;
66270;SDS011;53063;39.614;8.814;2023-11-19T07:56:33;6.75;;;1.80;;
66270;SDS011;53063;39.614;8.814;2023-11-19T07:59:02;4.10;;;1.63;;
66270;SDS011;53063;39.614;8.814;2023-11-19T08:01:28;3.20;;;0.98;;
66270;SDS011;53063;39.614;8.814;2023-11-19T08:03:54;2.15;;;0.70;;
66270;SDS011;53063;39.614;8.814;2023-11-19T08:06:20;5.45;;;1.35;;
66270;SDS011;53063;39.614;8.814;2023-11-19T08:08:46;3.97;;;0.77;;
66270;SDS011;53063;39.614;8.814;2023-11-19T08:11:13;4.55;;;1.35;;
66270;SDS011;53063;39.614;8.814;2023-11-19T08:13:40;2.70;;;0.73;;
66270;SDS011;53063;39.614;8.814;2023-11-19T08:16:06;3.25;;;0.93;;
66270;SDS011;53063;39.614;8.814;2023-11-19T08:18:32;4.22;;;1.13;;
66270;SDS011;53063;39.614;8.814;2023-11-19T08:20:58;2.17;;;0.70;;
66270;SDS011;53063;39.614;8.814;2023-11-19T08:23:25;6.78;;;1.27;;
66270;SDS011;53063;39.614;8.814;2023-11-19T08:25:53;5.75;;;1.40;;
66270;SDS011;53063;39.614;8.814;2023-11-19T08:28:19;4.60;;;1.20;;
66270;SDS011;53063;39.614;8.814;2023-11-19T08:30:45;4.28;;;1.20;;
66270;SDS011;53063;39.614;8.814;2023-11-19T08:33:11;2.95;;;0.90;;
66270;SDS011;53063;39.614;8.814;2023-11-19T08:35:37;4.38;;;1.25;;
66270;SDS011;53063;39.614;8.814;2023-11-19T08:38:03;8.15;;;3.90;;
66270;SDS011;53063;39.614;8.814;2023-11-19T08:40:29;9.85;;;4.72;;
66270;SDS011;53063;39.614;8.814;2023-11-19T08:42:55;8.60;;;6.35;;
66270;SDS011;53063;39.614;8.814;2023-11-19T08:45:21;8.63;;;4.07;;
66270;SDS011;53063;39.614;8.814;2023-11-19T08:47:47;6.47;;;2.22;;
66270;SDS011;53063;39.614;8.814;2023-11-19T08:50:13;10.45;;;1.98;;
66270;SDS011;53063;39.614;8.814;2023-11-19T08:52:39;7.40;;;3.30;;
66270;SDS011;53063;39.614;8.814;2023-11-19T08:55:05;8.80;;;4.35;;
66270;SDS011;53063;39.614;8.814;2023-11-19T08:57:32;9.35;;;4.70;;
66270;SDS011;53063;39.614;8.814;2023-11-19T08:59:58;8.15;;;3.92;;
66270;SDS011;53063;39.614;8.814;2023-11-19T09:02:24;11.02;;;4.68;;
66270;SDS011;53063;39.614;8.814;2023-11-19T09:04:51;26.80;;;8.70;;
66270;SDS011;53063;39.614;8.814;2023-11-19T09:07:17;8.57;;;3.13;;
66270;SDS011;53063;39.614;8.814;2023-11-19T09:09:43;7.90;;;2.17;;
66270;SDS011;53063;39.614;8.814;2023-11-19T09:12:09;7.18;;;1.92;;
66270;SDS011;53063;39.614;8.814;2023-11-19T09:14:35;5.15;;;1.77;;
66270;SDS011;53063;39.614;8.814;2023-11-19T09:17:01;3.28;;;1.45;;
66270;SDS011;53063;39.614;8.814;2023-11-19T09:19:27;4.97;;;1.75;;
66270;SDS011;53063;39.614;8.814;2023-11-19T09:21:53;4.53;;;1.50;;
66270;SDS011;53063;39.614;8.814;2023-11-19T09:24:19;5.85;;;1.98;;
66270;SDS011;53063;39.614;8.814;2023-11-19T09:26:44;2.72;;;1.50;;
66270;SDS011;53063;39.614;8.814;2023-11-19T09:29:10;4.63;;;1.42;;
66270;SDS011;53063;39.614;8.814;2023-11-19T09:31:39;5.80;;;2.03;;
66270;SDS011;53063;39.614;8.814;2023-11-19T09:34:05;5.47;;;1.52;;
66270;SDS011;53063;39.614;8.814;2023-11-19T09:36:31;4.85;;;1.83;;
66270;SDS011;53063;39.614;8.814;2023-11-19T09:38:57;6.32;;;2.53;;
66270;SDS011;53063;39.614;8.814;2023-11-19T09:41:25;6.32;;;2.30;;
66270;SDS011;53063;39.614;8.814;2023-11-19T09:43:53;8.48;;;2.67;;
66270;SDS011;53063;39.614;8.814;2023-11-19T09:46:19;8.10;;;3.00;;
66270;SDS011;53063;39.614;8.814;2023-11-19T09:48:46;12.85;;;3.55;;
66270;SDS011;53063;39.614;8.814;2023-11-19T09:51:14;10.70;;;3.08;;
66270;SDS011;53063;39.614;8.814;2023-11-19T09:53:39;7.82;;;2.80;;
66270;SDS011;53063;39.614;8.814;2023-11-19T09:56:06;7.10;;;2.65;;
66270;SDS011;53063;39.614;8.814;2023-11-19T09:58:35;6.28;;;2.78;;
66270;SDS011;53063;39.614;8.814;2023-11-19T10:01:01;9.73;;;2.67;;
66270;SDS011;53063;39.614;8.814;2023-11-19T10:03:35;8.93;;;2.47;;
66270;SDS011;53063;39.614;8.814;2023-11-19T10:06:08;6.07;;;2.78;;
66270;SDS011;53063;39.614;8.814;2023-11-19T10:08:37;6.90;;;2.70;;
66270;SDS011;53063;39.614;8.814;2023-11-19T10:13:34;8.02;;;2.88;;
66270;SDS011;53063;39.614;8.814;2023-11-19T10:16:12;5.78;;;2.28;;
66270;SDS011;53063;39.614;8.814;2023-11-19T10:18:47;6.97;;;2.20;;
66270;SDS011;53063;39.614;8.814;2023-11-19T10:21:17;4.03;;;1.70;;
66270;SDS011;53063;39.614;8.814;2023-11-19T10:23:50;3.65;;;1.92;;
66270;SDS011;53063;39.614;8.814;2023-11-19T10:26:22;4.00;;;1.45;;
66270;SDS011;53063;39.614;8.814;2023-11-19T10:28:48;6.68;;;3.05;;
66270;SDS011;53063;39.614;8.814;2023-11-19T10:31:14;7.07;;;1.60;;
66270;SDS011;53063;39.614;8.814;2023-11-19T10:33:41;4.13;;;1.20;;
66270;SDS011;53063;39.614;8.814;2023-11-19T10:36:10;8.00;;;1.60;;
66270;SDS011;53063;39.614;8.814;2023-11-19T10:38:37;6.53;;;1.75;;
66270;SDS011;53063;39.614;8.814;2023-11-19T10:41:04;3.38;;;1.70;;
66270;SDS011;53063;39.614;8.814;2023-11-19T10:43:30;6.25;;;1.58;;
66270;SDS011;53063;39.614;8.814;2023-11-19T10:46:14;3.53;;;1.25;;
66270;SDS011;53063;39.614;8.814;2023-11-19T10:48:46;7.38;;;1.20;;
66270;SDS011;53063;39.614;8.814;2023-11-19T10:51:12;1.58;;;0.95;;
66270;SDS011;53063;39.614;8.814;2023-11-19T10:53:46;4.05;;;1.00;;
66270;SDS011;53063;39.614;8.814;2023-11-19T10:56:14;2.38;;;0.90;;
66270;SDS011;53063;39.614;8.814;2023-11-19T10:58:44;4.63;;;0.70;;
66270;SDS011;53063;39.614;8.814;2023-11-19T11:01:13;4.68;;;0.80;;
66270;SDS011;53063;39.614;8.814;2023-11-19T11:03:43;6.32;;;0.98;;
66270;SDS011;53063;39.614;8.814;2023-11-19T11:06:11;4.22;;;1.15;;
66270;SDS011;53063;39.614;8.814;2023-11-19T11:08:38;2.30;;;0.90;;
66270;SDS011;53063;39.614;8.814;2023-11-19T11:11:05;4.75;;;1.08;;
66270;SDS011;53063;39.614;8.814;2023-11-19T11:13:32;5.53;;;1.10;;
66270;SDS011;53063;39.614;8.814;2023-11-19T11:15:59;4.68;;;1.15;;
66270;SDS011;53063;39.614;8.814;2023-11-19T11:18:25;3.90;;;1.13;;
66270;SDS011;53063;39.614;8.814;2023-11-19T11:20:54;3.20;;;1.30;;
66270;SDS011;53063;39.614;8.814;2023-11-19T11:29:16;5.07;;;1.13;;
66270;SDS011;53063;39.614;8.814;2023-11-19T11:37:39;2.92;;;0.90;;
66270;SDS011;53063;39.614;8.814;2023-11-19T11:40:16;6.05;;;1.42;;
66270;SDS011;53063;39.614;8.814;2023-11-19T11:42:46;7.32;;;1.70;;
66270;SDS011;53063;39.614;8.814;2023-11-19T11:45:12;1.08;;;0.75;;
66270;SDS011;53063;39.614;8.814;2023-11-19T11:50:09;4.63;;;0.90;;
66270;SDS011;53063;39.614;8.814;2023-11-19T11:55:25;4.95;;;0.80;;
66270;SDS011;53063;39.614;8.814;2023-11-19T11:57:51;4.68;;;0.70;;
66270;SDS011;53063;39.614;8.814;2023-11-19T12:02:56;5.10;;;0.68;;
66270;SDS011;53063;39.614;8.814;2023-11-19T12:05:22;4.72;;;1.13;;
66270;SDS011;53063;39.614;8.814;2023-11-19T12:07:55;2.75;;;1.00;;
66270;SDS011;53063;39.614;8.814;2023-11-19T12:10:36;3.80;;;1.45;;
66270;SDS011;53063;39.614;8.814;2023-11-19T12:13:08;3.97;;;0.90;;
66270;SDS011;53063;39.614;8.814;2023-11-19T12:18:23;3.30;;;1.00;;
66270;SDS011;53063;39.614;8.814;2023-11-19T12:20:49;4.10;;;0.88;;
66270;SDS011;53063;39.614;8.814;2023-11-19T12:23:15;7.32;;;1.25;;
66270;SDS011;53063;39.614;8.814;2023-11-19T12:25:41;4.40;;;1.05;;
66270;SDS011;53063;39.614;8.814;2023-11-19T12:28:11;5.07;;;1.00;;
66270;SDS011;53063;39.614;8.814;2023-11-19T12:30:38;4.88;;;0.90;;
66270;SDS011;53063;39.614;8.814;2023-11-19T12:33:11;4.40;;;1.13;;
66270;SDS011;53063;39.614;8.814;2023-11-19T12:35:40;2.72;;;1.00;;
66270;SDS011;53063;39.614;8.814;2023-11-19T12:38:07;3.22;;;0.65;;
66270;SDS011;53063;39.614;8.814;2023-11-19T12:40:43;3.33;;;0.82;;
66270;SDS011;53063;39.614;8.814;2023-11-19T12:43:09;4.88;;;0.90;;
66270;SDS011;53063;39.614;8.814;2023-11-19T12:45:35;3.58;;;1.10;;
66270;SDS011;53063;39.614;8.814;2023-11-19T12:48:04;3.83;;;1.40;;
66270;SDS011;53063;39.614;8.814;2023-11-19T12:50:50;4.57;;;1.33;;
66270;SDS011;53063;39.614;8.814;2023-11-19T12:53:23;2.95;;;0.93;;
66270;SDS011;53063;39.614;8.814;2023-11-19T12:55:50;4.45;;;0.77;;
66270;SDS011;53063;39.614;8.814;2023-11-19T12:58:50;5.75;;;1.40;;
66270;SDS011;53063;39.614;8.814;2023-11-19T13:01:14;2.92;;;0.75;;
66270;SDS011;53063;39.614;8.814;2023-11-19T13:03:45;4.55;;;0.80;;
66270;SDS011;53063;39.614;8.814;2023-11-19T13:06:12;4.68;;;0.90;;
66270;SDS011;53063;39.614;8.814;2023-11-19T13:08:43;1.42;;;0.57;;
66270;SDS011;53063;39.614;8.814;2023-11-19T13:11:30;5.60;;;1.10;;
66270;SDS011;53063;39.614;8.814;2023-11-19T13:13:58;4.60;;;0.90;;
66270;SDS011;53063;39.614;8.814;2023-11-19T13:16:25;3.63;;;0.88;;
66270;SDS011;53063;39.614;8.814;2023-11-19T13:18:52;6.72;;;1.10;;
66270;SDS011;53063;39.614;8.814;2023-11-19T13:21:18;4.75;;;0.82;;
66270;SDS011;53063;39.614;8.814;2023-11-19T13:23:44;4.95;;;1.27;;
66270;SDS011;53063;39.614;8.814;2023-11-19T13:26:10;3.90;;;0.85;;
66270;SDS011;53063;39.614;8.814;2023-11-19T13:28:37;2.08;;;0.80;;
66270;SDS011;53063;39.614;8.814;2023-11-19T13:31:03;7.63;;;1.35;;
66270;SDS011;53063;39.614;8.814;2023-11-19T13:33:29;6.07;;;0.85;;
66270;SDS011;53063;39.614;8.814;2023-11-19T13:35:55;3.08;;;0.93;;
66270;SDS011;53063;39.614;8.814;2023-11-19T13:38:22;8.57;;;1.02;;
66270;SDS011;53063;39.614;8.814;2023-11-19T13:40:51;6.25;;;0.82;;
66270;SDS011;53063;39.614;8.814;2023-11-19T13:43:17;6.45;;;1.02;;
66270;SDS011;53063;39.614;8.814;2023-11-19T13:45:42;5.10;;;0.95;;
66270;SDS011;53063;39.614;8.814;2023-11-19T13:48:08;3.83;;;0.95;;
66270;SDS011;53063;39.614;8.814;2023-11-19T13:50:34;3.67;;;1.15;;
66270;SDS011;53063;39.614;8.814;2023-11-19T13:53:00;4.15;;;0.80;;
66270;SDS011;53063;39.614;8.814;2023-11-19T13:55:26;7.38;;;1.20;;
66270;SDS011;53063;39.614;8.814;2023-11-19T13:57:52;5.45;;;0.85;;
66270;SDS011;53063;39.614;8.814;2023-11-19T14:00:18;4.75;;;1.00;;
66270;SDS011;53063;39.614;8.814;2023-11-19T14:02:47;5.63;;;1.20;;
66270;SDS011;53063;39.614;8.814;2023-11-19T14:05:14;4.93;;;1.10;;
66270;SDS011;53063;39.614;8.814;2023-11-19T14:07:43;3.38;;;0.90;;
66270;SDS011;53063;39.614;8.814;2023-11-19T14:10:09;3.20;;;0.90;;
66270;SDS011;53063;39.614;8.814;2023-11-19T14:12:38;2.78;;;0.90;;
66270;SDS011;53063;39.614;8.814;2023-11-19T14:15:04;5.05;;;1.20;;
66270;SDS011;53063;39.614;8.814;2023-11-19T14:17:32;4.90;;;0.73;;
66270;SDS011;53063;39.614;8.814;2023-11-19T14:19:59;5.32;;;0.70;;
66270;SDS011;53063;39.614;8.814;2023-11-19T14:22:25;2.65;;;0.82;;
66270;SDS011;53063;39.614;8.814;2023-11-19T14:24:52;1.63;;;1.02;;
66270;SDS011;53063;39.614;8.814;2023-11-19T14:27:18;6.80;;;0.93;;
66270;SDS011;53063;39.614;8.814;2023-11-19T14:29:45;2.95;;;0.77;;
66270;SDS011;53063;39.614;8.814;2023-11-19T14:32:11;4.80;;;0.80;;
66270;SDS011;53063;39.614;8.814;2023-11-19T14:34:36;6.40;;;1.40;;
66270;SDS011;53063;39.614;8.814;2023-11-19T14:37:03;3.38;;;1.15;;
66270;SDS011;53063;39.614;8.814;2023-11-19T14:39:29;2.55;;;0.90;;
66270;SDS011;53063;39.614;8.814;2023-11-19T14:41:58;3.85;;;1.15;;
66270;SDS011;53063;39.614;8.814;2023-11-19T14:44:26;4.82;;;1.00;;
66270;SDS011;53063;39.614;8.814;2023-11-19T14:46:54;2.08;;;0.85;;
66270;SDS011;53063;39.614;8.814;2023-11-19T14:49:20;8.65;;;1.15;;
66270;SDS011;53063;39.614;8.814;2023-11-19T14:51:46;4.78;;;1.23;;
66270;SDS011;53063;39.614;8.814;2023-11-19T14:54:11;5.32;;;1.42;;
66270;SDS011;53063;39.614;8.814;2023-11-19T14:56:39;4.57;;;0.80;;
66270;SDS011;53063;39.614;8.814;2023-11-19T14:59:05;3.90;;;0.82;;
66270;SDS011;53063;39.614;8.814;2023-11-19T15:01:32;2.38;;;0.70;;
66270;SDS011;53063;39.614;8.814;2023-11-19T15:03:58;2.85;;;0.98;;
66270;SDS011;53063;39.614;8.814;2023-11-19T15:06:24;5.55;;;0.93;;
66270;SDS011;53063;39.614;8.814;2023-11-19T15:08:58;6.50;;;1.10;;
66270;SDS011;53063;39.614;8.814;2023-11-19T15:11:24;6.53;;;1.23;;
66270;SDS011;53063;39.614;8.814;2023-11-19T15:13:50;2.67;;;0.60;;
66270;SDS011;53063;39.614;8.814;2023-11-19T15:16:16;5.03;;;1.10;;